Tiempo atmosférico en la estación meteorológica de Fresno de Cantiespino, Segovia (993 m.)



Fecha
DESCASC
Temp. máxima en grados centígrados (hora)
DESCASC
Temp. mínima en grados centígrados (hora)
DESCASC
Temp. media en grados centígrados
DESCASC
Racha de viento máxima en m/sg (hora)
DESCASC
Velocidad máxima media en intervalos de 10 minutos(hora)
DESCASC
Precipitaciones diarias en mm
DESCASC
Precipitaciones de 00:00 a 06:00 en mm
DESCASC
Precipitaciones de 06:00 a 12:00 en mm
DESCASC
Precipitaciones de 12:00 a 18:00 en mm
DESCASC
Precipitaciones de 18:00 a 24:00 en mm
DESCASC

Gráficas

Temp. máximas Temp. mínimas Temp. medias Precipitaciones Rachas de viento máximas Velocidades máximas media en intervalos de 10 minutos

Datos horarios

Fecha y hora oficial Temperatura (ºC) Velocidad del viento (km/h) Dirección del viento Racha (km/h) Dirección de racha Precipitación (mm) Presión (hPa) Tendencia (hPa) Humedad (%)
2019-08-17 23:00:00 21.3 9 Sur 15 Sur 0 -- -- 36
2019-08-17 22:00:00 24.5 7 Sur 12 Oeste 0 -- -- 31
2019-08-17 21:00:00 30.1 10 Oeste 28 Oeste 0 -- -- 24
2019-08-17 20:00:00 32.6 19 Noroeste 31 Oeste 0 -- -- 22
2019-08-17 19:00:00 34.3 19 Oeste 31 Oeste 0 -- -- 19
2019-08-17 18:00:00 34.4 19 Oeste 30 Oeste 0 -- -- 20
2019-08-17 17:00:00 34.7 16 Oeste 33 Oeste 0 -- -- 21
2019-08-17 16:00:00 33.5 14 Noroeste 33 Oeste 0 -- -- 22
2019-08-17 15:00:00 33.3 11 Sudoeste 32 Sudoeste 0 -- -- 23
2019-08-17 14:00:00 32.1 17 Sudoeste 35 Oeste 0 -- -- 24
2019-08-17 13:00:00 30.6 14 Oeste 23 Oeste 0 -- -- 26
2019-08-17 12:00:00 27.9 9 Oeste 16 Oeste 0 -- -- 30
2019-08-17 11:00:00 25.8 8 Oeste 17 Oeste 0 -- -- 34
2019-08-17 10:00:00 23.6 12 Oeste 19 Sudoeste 0 -- -- 38
2019-08-17 09:00:00 20.1 13 Sur 17 Sudoeste 0 -- -- 45
2019-08-17 08:00:00 15.4 11 Sur 14 Sur 0 -- -- 54
2019-08-17 07:00:00 16.5 10 Oeste 14 Oeste 0 -- -- 49
2019-08-17 06:00:00 17.5 9 Sudoeste 18 Sudoeste 0 -- -- 47
2019-08-17 05:00:00 19 10 Sudoeste 19 Sudoeste 0 -- -- 43
2019-08-17 04:00:00 19.4 13 Sudoeste 21 Sudoeste 0 -- -- 43
2019-08-17 03:00:00 18.8 10 Sudoeste 15 Sudoeste 0 -- -- 47
2019-08-17 02:00:00 17.9 10 Sudoeste 14 Oeste 0 -- -- 52
2019-08-17 01:00:00 19.3 10 Sur 13 Sur 0 -- -- 46
2019-08-17 00:00:00 19.1 12 Sudoeste 13 Sudoeste 0 -- -- 48
2019-08-16 23:00:00 20.6 10 Sur 12 Sur 0 -- -- 44
2019-08-16 22:00:00 24 7 Sudoeste 15 Oeste 0 -- -- 36
2019-08-16 21:00:00 29.3 13 Noroeste 26 Noroeste 0 -- -- 27
2019-08-16 20:00:00 31.5 19 Oeste 33 Oeste 0 -- -- 26
2019-08-16 19:00:00 33.2 16 Oeste 33 Oeste 0 -- -- 23
2019-08-16 18:00:00 32.8 23 Oeste 38 Oeste 0 -- -- 23
2019-08-16 17:00:00 33.1 17 Oeste 36 Oeste 0 -- -- 21
2019-08-16 16:00:00 32.7 18 Oeste 35 Sudoeste 0 -- -- 23
2019-08-16 15:00:00 31.6 18 Oeste 37 Oeste 0 -- -- 26
2019-08-16 14:00:00 31.3 17 Oeste 34 Sudoeste 0 -- -- 27
2019-08-16 13:00:00 30.1 14 Sudoeste 27 Oeste 0 -- -- 30
2019-08-16 12:00:00 28.7 10 Oeste 23 Sudoeste 0 -- -- 34
2019-08-16 11:00:00 26.2 9 Sudoeste 21 Sudoeste 0 -- -- 40
2019-08-16 10:00:00 23.6 11 Oeste 18 Sudoeste 0 -- -- 47
2019-08-16 09:00:00 17.6 3 Sur 8 Sur 0 -- -- 67
2019-08-16 08:00:00 12.4 8 Sudoeste 10 Sudoeste 0 -- -- 81
2019-08-16 07:00:00 11.8 6 Sudoeste 9 Sudoeste 0 -- -- 81
2019-08-16 06:00:00 12.3 6 Sur 11 Sudoeste 0 -- -- 80
2019-08-16 05:00:00 12.8 7 Sudoeste 10 Sudoeste 0 -- -- 77
2019-08-16 04:00:00 14 7 Sudoeste 9 Sur 0 -- -- 72
2019-08-16 03:00:00 15.8 5 Sur 8 Sur 0 -- -- 67
2019-08-16 02:00:00 19.1 5 Nordeste 18 Sudeste 0 -- -- 57
2019-08-16 01:00:00 21.7 13 Sudeste 21 Sudeste 0 -- -- 51
2019-08-16 00:00:00 19.8 8 Este 13 Este 0 -- -- 54
2019-08-15 23:00:00 21.1 4 Este 10 Este 0 -- -- 49
2019-08-15 22:00:00 23.3 9 Nordeste 21 Norte 0 -- -- 44
2019-08-15 21:00:00 25.8 18 Norte 27 Norte 0 -- -- 40
2019-08-15 20:00:00 28.9 9 Norte 26 Noroeste 0 -- -- 34
2019-08-15 19:00:00 30.2 16 Noroeste 30 Oeste 0 -- -- 28
2019-08-15 18:00:00 30.6 14 Noroeste 27 Noroeste 0 -- -- 27
2019-08-15 17:00:00 30.7 12 Noroeste 30 Noroeste 0 -- -- 25
2019-08-15 16:00:00 30.4 7 Sudoeste 28 Noroeste 0 -- -- 28
2019-08-15 15:00:00 29.4 10 Norte 24 Norte 0 -- -- 30
2019-08-15 14:00:00 28.6 14 Noroeste 30 Norte 0 -- -- 27
2019-08-15 13:00:00 27.4 15 Norte 25 Norte 0 -- -- 33
2019-08-15 12:00:00 25.6 10 Noroeste 24 Oeste 0 -- -- 43
2019-08-15 11:00:00 23.6 18 Oeste 28 Sudoeste 0 -- -- 51
2019-08-15 10:00:00 21.7 19 Sudoeste 27 Oeste 0 -- -- 57
2019-08-15 09:00:00 19.8 9 Sudoeste 19 Sudoeste 0 -- -- 60
2019-08-15 08:00:00 17 14 Sudoeste 24 Sur 0 -- -- 61
2019-08-15 07:00:00 12.8 7 Sur 10 Sur 0 -- -- 60
2019-08-15 06:00:00 13.5 2 Sudeste 12 Sur 0 -- -- 54
2019-08-15 05:00:00 15.5 9 Sudoeste 15 Sur 0 -- -- 52
2019-08-15 04:00:00 14.5 8 Sudoeste 14 Sur 0 -- -- 53
2019-08-15 03:00:00 14.8 0 Calma 9 Sur 0 -- -- 49
2019-08-15 02:00:00 15.8 3 Norte 12 Sudoeste 0 -- -- 47
2019-08-15 01:00:00 17 9 Sudoeste 13 Sudoeste 0 -- -- 46
2019-08-15 00:00:00 17.3 10 Sudoeste 13 Sur 0 -- -- 44
2019-08-14 23:00:00 18.1 12 Sudoeste 14 Sudoeste 0 -- -- 43
2019-08-14 22:00:00 21.2 8 Sudoeste 10 Noroeste 0 -- -- 36
2019-08-14 21:00:00 27.2 8 Noroeste 19 Oeste 0 -- -- 25
2019-08-14 20:00:00 29.6 9 Oeste 22 Oeste 0 -- -- 21
2019-08-14 19:00:00 30 12 Oeste 27 Oeste 0 -- -- 21
2019-08-14 18:00:00 30.4 17 Sudoeste 29 Oeste 0 -- -- 21
2019-08-14 17:00:00 30 11 Oeste 28 Noroeste 0 -- -- 22
2019-08-14 16:00:00 29.2 14 Sudoeste 32 Sudoeste 0 -- -- 23
2019-08-14 15:00:00 28.2 13 Oeste 26 Oeste 0 -- -- 23
2019-08-14 14:00:00 27.4 13 Oeste 32 Oeste 0 -- -- 24
2019-08-14 13:00:00 26.5 8 Norte 22 Norte 0 -- -- 26
2019-08-14 12:00:00 25.1 9 Norte 23 Oeste 0 -- -- 28
2019-08-14 11:00:00 23.2 8 Oeste 12 Oeste 0 -- -- 30
2019-08-14 10:00:00 19.1 4 Nordeste 7 Nordeste 0 -- -- 39
2019-08-14 09:00:00 13.7 2 Este 6 Nordeste 0 -- -- 51
2019-08-14 08:00:00 8.5 3 Sudoeste 10 Sur 0 -- -- 69
2019-08-14 07:00:00 7.2 3 Sur 8 Sur 0 -- -- 70
2019-08-14 06:00:00 7.8 6 Sur 10 Sudoeste 0 -- -- 67
2019-08-14 05:00:00 8.4 7 Sudoeste 10 Sur 0 -- -- 64
2019-08-14 04:00:00 8.9 8 Sudoeste 12 Sur 0 -- -- 61
2019-08-14 03:00:00 9.5 9 Sudoeste 11 Sur 0 -- -- 62
2019-08-14 02:00:00 10 3 Sur 10 Sudoeste 0 -- -- 57
2019-08-14 01:00:00 12.4 9 Sudoeste 12 Sur 0 -- -- 50
2019-08-14 00:00:00 12.3 10 Sudoeste 12 Sudoeste 0 -- -- 49
2019-08-13 23:00:00 13.4 9 Sudoeste 10 Sudoeste 0 -- -- 44
2019-08-13 22:00:00 18.2 0 Calma 13 Norte 0 -- -- 35
2019-08-13 21:00:00 22.1 13 Norte 21 Noroeste 0 -- -- 26
2019-08-13 20:00:00 24 14 Norte 27 Noroeste 0 -- -- 24
2019-08-13 19:00:00 24.6 13 Norte 30 Noroeste 0 -- -- 24
2019-08-13 18:00:00 25.3 12 Noroeste 27 Norte 0 -- -- 22
2019-08-13 17:00:00 25.5 14 Noroeste 31 Norte 0 -- -- 22
2019-08-13 16:00:00 25.1 10 Oeste 26 Noroeste 0 -- -- 23
2019-08-13 15:00:00 23.3 7 Oeste 21 Norte 0 -- -- 29
2019-08-13 14:00:00 22.3 8 Nordeste 21 Norte 0 -- -- 32
2019-08-13 13:00:00 20.8 9 Oeste 21 Norte 0 -- -- 33
2019-08-13 12:00:00 19.6 11 Norte 19 Norte 0 -- -- 37
2019-08-13 11:00:00 18.1 6 Nordeste 13 Este 0 -- -- 41
2019-08-13 10:00:00 14.4 3 Norte 8 Norte 0 -- -- 56
2019-08-13 09:00:00 10.4 0 Calma 8 Sudoeste 0 -- -- 73
2019-08-13 08:00:00 5.9 6 Sudoeste 9 Sudoeste 0 -- -- 85
2019-08-13 07:00:00 5.7 8 Sudoeste 10 Sur 0 -- -- 84
2019-08-13 06:00:00 7.4 6 Sur 9 Sudoeste 0 -- -- 80
2019-08-13 05:00:00 9.8 4 Sudoeste 8 Norte 0 -- -- 71
2019-08-13 04:00:00 12.1 3 Norte 8 Norte 0 -- -- 65
2019-08-13 03:00:00 12.8 2 Nordeste 10 Norte 0 -- -- 63
2019-08-13 02:00:00 13.5 7 Nordeste 12 Norte 0 -- -- 62
2019-08-13 01:00:00 14.4 9 Norte 24 Este 0 -- -- 58
2019-08-13 00:00:00 15.2 17 Este 24 Este 0 -- -- 55
2019-08-12 23:00:00 15.3 8 Nordeste 21 Nordeste 0 -- -- 53
2019-08-12 22:00:00 16.5 14 Nordeste 27 Noroeste 0 -- -- 48
2019-08-12 21:00:00 18.6 18 Norte 30 Norte 0 -- -- 40
2019-08-12 20:00:00 20.8 13 Noroeste 26 Norte 0 -- -- 32
2019-08-12 19:00:00 21.5 11 Noroeste 23 Norte 0 -- -- 30
2019-08-12 18:00:00 22.3 14 Noroeste 26 Norte 0 -- -- 29
2019-08-12 17:00:00 22 14 Norte 32 Norte 0 -- -- 30
2019-08-12 16:00:00 21.6 15 Norte 33 Norte 0 -- -- 31
2019-08-12 15:00:00 20.5 10 Norte 31 Norte 0 -- -- 34
2019-08-12 14:00:00 19.8 15 Noroeste 26 Noroeste 0 -- -- 37
2019-08-12 13:00:00 18.3 14 Norte 26 Nordeste 0 -- -- 41
2019-08-12 12:00:00 16.9 10 Noroeste 19 Norte 0 -- -- 48
2019-08-12 11:00:00 15.4 10 Oeste 19 Oeste 0 -- -- 59
2019-08-12 10:00:00 13.8 12 Sudoeste 24 Sudoeste 0 -- -- 68
2019-08-12 09:00:00 11.7 15 Sudoeste 23 Sudoeste 0 -- -- 79
2019-08-12 08:00:00 9.4 7 Sudoeste 15 Sur 0 -- -- 89
2019-08-12 07:00:00 9.1 6 Sudoeste 18 Sudoeste 0 -- -- 88
2019-08-12 06:00:00 9.8 12 Sudoeste 20 Sudoeste 0 -- -- 87
2019-08-12 05:00:00 10.3 7 Sudoeste 17 Sudoeste 0 -- -- 87
2019-08-12 04:00:00 10.9 10 Sudoeste 18 Sudoeste 0 -- -- 84
2019-08-12 03:00:00 12.2 10 Oeste 28 Sudoeste 0 -- -- 77
2019-08-12 02:00:00 13.4 18 Sudoeste 26 Sudoeste 0 -- -- 59
2019-08-12 01:00:00 14.1 9 Sur 18 Sudoeste 0 -- -- 52
2019-08-12 00:00:00 14.6 10 Sudoeste 15 Sudoeste 0 -- -- 43
2019-08-11 23:00:00 16.9 8 Sudoeste 17 Oeste 0 -- -- 40
2019-08-11 22:00:00 19.2 12 Oeste 21 Oeste 0 -- -- 37
2019-08-11 21:00:00 20.9 17 Oeste 35 Oeste 0 -- -- 35
2019-08-11 20:00:00 22.7 22 Oeste 36 Oeste 0 -- -- 34
2019-08-11 19:00:00 23.9 23 Oeste 39 Oeste 0 -- -- 32
2019-08-11 18:00:00 23.2 21 Oeste 37 Oeste 0 -- -- 37
2019-08-11 17:00:00 23.9 21 Oeste 38 Oeste 0 -- -- 38
2019-08-11 16:00:00 24.6 23 Oeste 37 Oeste 0 -- -- 37
2019-08-11 15:00:00 24.8 18 Sudoeste 40 Oeste 0 -- -- 36
2019-08-11 14:00:00 23.7 17 Oeste 32 Oeste 0 -- -- 38
2019-08-11 13:00:00 24 15 Noroeste 31 Noroeste 0 -- -- 39
2019-08-11 12:00:00 21.7 7 Noroeste 24 Noroeste 0 -- -- 46
2019-08-11 11:00:00 20.3 5 Noroeste 15 Noroeste 0 -- -- 52
2019-08-11 10:00:00 18.5 5 Este 19 Sudeste 0 -- -- 58
2019-08-11 09:00:00 16.5 9 Este 13 Este 0 -- -- 72
2019-08-11 08:00:00 14 2 Nordeste 11 Nordeste 0 -- -- 81
2019-08-11 07:00:00 15.3 7 Este 24 Oeste 0 -- -- 77
2019-08-11 06:00:00 16.7 23 Oeste 35 Oeste 0 -- -- 67
2019-08-11 05:00:00 17 11 Sudoeste 18 Sudoeste 0 -- -- 59
2019-08-11 04:00:00 17.2 6 Sudoeste 14 Oeste 0 -- -- 57
2019-08-11 03:00:00 17.1 6 Sudoeste 14 Sur 0 -- -- 59
2019-08-11 02:00:00 16.8 9 Sur 13 Oeste 0 -- -- 59
2019-08-11 01:00:00 18.1 12 Noroeste 15 Noroeste 0 -- -- 54
2019-08-11 00:00:00 18.6 9 Sur 15 Sudoeste 0 -- -- 59
2019-08-10 23:00:00 20.1 8 Sur 11 Sur 0 -- -- 53
2019-08-10 22:00:00 21.6 8 Oeste 32 Oeste 0.2 -- -- 48
2019-08-10 21:00:00 23.8 6 Nordeste 16 Norte 2 -- -- 37
2019-08-10 20:00:00 25.9 9 Norte 23 Norte 0 -- -- 32
2019-08-10 19:00:00 26.2 12 Norte 27 Norte 0 -- -- 33
2019-08-10 18:00:00 28 8 Noroeste 26 Oeste 0 -- -- 33
2019-08-10 17:00:00 27.7 12 Noroeste 27 Noroeste 0 -- -- 33
2019-08-10 16:00:00 26 9 Oeste 24 Oeste 0 -- -- 40
2019-08-10 15:00:00 24.9 6 Oeste 22 Norte 0 -- -- 44
2019-08-10 14:00:00 22.8 7 Norte 15 Noroeste 0 -- -- 51
2019-08-10 13:00:00 21.6 6 Noroeste 15 Oeste 0 -- -- 56
2019-08-10 12:00:00 20.1 5 Noroeste 16 Sudoeste 0 -- -- 60
2019-08-10 11:00:00 18.2 6 Oeste 15 Oeste 0 -- -- 64
2019-08-10 10:00:00 16.6 9 Oeste 13 Oeste 0 -- -- 74
2019-08-10 09:00:00 15.7 5 Sudoeste 10 Sudoeste 0 -- -- 88
2019-08-10 08:00:00 13.4 6 Sudoeste 13 Sudoeste 0 -- -- 94
2019-08-10 07:00:00 13.3 8 Sudoeste 14 Sudoeste 0 -- -- 93
2019-08-10 06:00:00 13.4 8 Sudoeste 14 Sudoeste 0 -- -- 92
2019-08-10 05:00:00 14 11 Sudoeste 17 Sudoeste 0 -- -- 90
2019-08-10 04:00:00 14.5 12 Sudoeste 16 Sudoeste 0 -- -- 89
2019-08-10 03:00:00 14.7 9 Sudoeste 16 Sudoeste 0 -- -- 90
2019-08-10 02:00:00 14.9 9 Sudoeste 14 Sudoeste 0 -- -- 91
2019-08-10 01:00:00 15.1 10 Sudoeste 16 Sudoeste 0 -- -- 92
2019-08-10 00:00:00 15 7 Sudoeste 14 Sudoeste 0 -- -- 91
2019-08-09 23:00:00 15.7 9 Sudoeste 17 Oeste 0 -- -- 91
2019-08-09 22:00:00 16.8 10 Sudoeste 19 Sudoeste 0 -- -- 86
2019-08-09 21:00:00 17 13 Sudoeste 29 Sudoeste 0 -- -- 84
2019-08-09 20:00:00 18.3 18 Sudoeste 32 Oeste 0.2 -- -- 80
2019-08-09 19:00:00 21.4 22 Oeste 41 Oeste 1.2 -- -- 78
2019-08-09 18:00:00 25.6 23 Oeste 47 Oeste 0 -- -- 55
2019-08-09 17:00:00 27.3 27 Oeste 41 Oeste 0 -- -- 51
2019-08-09 16:00:00 29 22 Sudoeste 44 Sudoeste 0 -- -- 47
2019-08-09 15:00:00 28.9 24 Sudoeste 39 Sudoeste 0 -- -- 45
2019-08-09 14:00:00 26.9 23 Sudoeste 42 Oeste 0 -- -- 49
2019-08-09 13:00:00 27.8 28 Sudoeste 50 Oeste 0 -- -- 43
2019-08-09 12:00:00 26.9 25 Sudoeste 42 Oeste 0 -- -- 45
2019-08-09 11:00:00 26.3 16 Sudoeste 33 Oeste 0 -- -- 44
2019-08-09 10:00:00 24.6 15 Sudoeste 23 Sudoeste 0 -- -- 48
2019-08-09 09:00:00 21.1 0 Calma 9 Sudoeste 0 -- -- 67
2019-08-09 08:00:00 16.5 7 Sur 10 Sudoeste 0 -- -- 82
2019-08-09 07:00:00 15.2 9 Sur 10 Sur 0 -- -- 84
2019-08-09 06:00:00 16 8 Sudoeste 10 Sudoeste 0 -- -- 81
2019-08-09 05:00:00 17.2 7 Sudoeste 12 Sudoeste 0 -- -- 75
2019-08-09 04:00:00 17.9 7 Sudoeste 12 Sudoeste 0 -- -- 71
2019-08-09 03:00:00 18.4 8 Sur 12 Sudoeste 0 -- -- 65
2019-08-09 02:00:00 20.4 10 Sudoeste 20 Sudoeste 0 -- -- 61
2019-08-09 01:00:00 21.3 10 Sudoeste 15 Sudoeste 0 -- -- 56
2019-08-09 00:00:00 23.5 11 Sudoeste 19 Sudoeste 0 -- -- 49
2019-08-08 23:00:00 23.7 7 Sur 19 Sudoeste 0 -- -- 48
2019-08-08 22:00:00 26.6 12 Sudoeste 29 Oeste 0 -- -- 40
2019-08-08 21:00:00 29.2 18 Sudoeste 32 Sudoeste 0 -- -- 36
2019-08-08 20:00:00 29.4 13 Sur 23 Sudoeste 0 -- -- 39
2019-08-08 19:00:00 30.4 15 Sudoeste 37 Oeste 0 -- -- 36
2019-08-08 18:00:00 31.2 21 Sudoeste 40 Sudoeste 0 -- -- 34
2019-08-08 17:00:00 29.9 16 Sudoeste 36 Sudoeste 0 -- -- 37
2019-08-08 16:00:00 29.4 15 Sudoeste 30 Oeste 0 -- -- 39
2019-08-08 15:00:00 28.8 18 Sudoeste 39 Oeste 0 -- -- 42
2019-08-08 14:00:00 28.1 19 Oeste 34 Sudoeste 0 -- -- 45
2019-08-08 13:00:00 27.3 15 Sudoeste 34 Sudoeste 0 -- -- 46
2019-08-08 12:00:00 25.6 21 Sudoeste 32 Oeste 0 -- -- 50
2019-08-08 11:00:00 24 19 Sudoeste 30 Sudoeste 0 -- -- 52
2019-08-08 10:00:00 22.5 14 Sudoeste 27 Sudoeste 0 -- -- 54
2019-08-08 09:00:00 21 18 Sudoeste 27 Sudoeste 0 -- -- 55
2019-08-08 08:00:00 19.4 10 Sudoeste 17 Sudoeste 0 -- -- 60
2019-08-08 07:00:00 18.6 13 Sudoeste 31 Oeste 0 -- -- 63
2019-08-08 06:00:00 18.1 13 Sudoeste 21 Sudoeste 0 -- -- 64
2019-08-08 05:00:00 16.9 9 Sudoeste 18 Sudoeste 0 -- -- 67
2019-08-08 04:00:00 16.4 10 Sudoeste 18 Sudoeste 0 -- -- 69
2019-08-08 03:00:00 16.6 9 Sudoeste 14 Sudoeste 0 -- -- 67
2019-08-08 02:00:00 16.4 6 Sudoeste 10 Sudoeste 0 -- -- 68
2019-08-08 01:00:00 17.9 6 Sudoeste 16 Sudoeste 0 -- -- 62
2019-08-08 00:00:00 18.7 8 Sudoeste 15 Sudoeste 0 -- -- 61
2019-08-07 23:00:00 19 9 Sudoeste 17 Sur 0 -- -- 61
2019-08-07 22:00:00 20 9 Sur 20 Sudoeste 0 -- -- 60
2019-08-07 21:00:00 21.6 9 Sudoeste 27 Sudoeste 0 -- -- 56
2019-08-07 20:00:00 21.9 13 Sudoeste 24 Sudoeste 0 -- -- 54
2019-08-07 19:00:00 20.3 15 Sudoeste 37 Sudoeste 0 -- -- 61
2019-08-07 18:00:00 23.6 12 Sudoeste 27 Sudoeste 0 -- -- 44
2019-08-07 17:00:00 23.4 15 Sudoeste 41 Sudoeste 0 -- -- 45
2019-08-07 16:00:00 25.5 19 Sudoeste 31 Sudoeste 0 -- -- 37
2019-08-07 15:00:00 25.9 22 Sudoeste 35 Sudoeste 0 -- -- 43
2019-08-07 14:00:00 25.7 17 Sudoeste 28 Sur 0 -- -- 45
2019-08-07 13:00:00 24.8 14 Sudoeste 31 Oeste 0 -- -- 48
2019-08-07 12:00:00 24.3 16 Oeste 26 Oeste 0 -- -- 48
2019-08-07 11:00:00 23.8 15 Oeste 24 Sudoeste 0 -- -- 49
2019-08-07 10:00:00 22.4 11 Sur 23 Sudoeste 0 -- -- 51
2019-08-07 09:00:00 20.4 9 Sudoeste 15 Sudoeste 0 -- -- 57
2019-08-07 08:00:00 17.9 11 Sudeste 15 Sudeste 0 -- -- 61
2019-08-07 07:00:00 18.8 9 Sudoeste 13 Oeste 0 -- -- 54
2019-08-07 06:00:00 19.3 7 Sur 21 Sur 0 -- -- 54
2019-08-07 05:00:00 19.7 9 Sudoeste 16 Sur 0 -- -- 53
2019-08-07 04:00:00 19.8 5 Sudoeste 10 Sur 0 -- -- 51
2019-08-07 03:00:00 21 8 Oeste 23 Sudoeste 0 -- -- 47
2019-08-07 02:00:00 21 12 Sudoeste 19 Sudoeste 0 -- -- 48
2019-08-07 01:00:00 21.5 9 Sudoeste 20 Oeste 0 -- -- 46
2019-08-07 00:00:00 20.5 10 Sudoeste 12 Sudoeste 0 -- -- 52
2019-08-06 23:00:00 22.5 7 Sudoeste 10 Sudoeste 0 -- -- 44
2019-08-06 22:00:00 26.5 3 Oeste 20 Noroeste 0 -- -- 35
2019-08-06 21:00:00 28.7 12 Noroeste 24 Noroeste 0 -- -- 31
2019-08-06 20:00:00 29.9 16 Noroeste 25 Noroeste 0 -- -- 26
2019-08-06 19:00:00 31.5 14 Noroeste 32 Oeste 0 -- -- 23
2019-08-06 18:00:00 33 19 Oeste 29 Oeste 0 -- -- 21
2019-08-06 17:00:00 33.4 17 Oeste 31 Oeste 0 -- -- 21
2019-08-06 16:00:00 32.9 14 Oeste 35 Oeste 0 -- -- 20
2019-08-06 15:00:00 32.3 13 Sudoeste 33 Oeste 0 -- -- 21
2019-08-06 14:00:00 30.8 17 Oeste 32 Oeste 0 -- -- 24
2019-08-06 13:00:00 29.9 20 Oeste 33 Oeste 0 -- -- 21
2019-08-06 12:00:00 28 13 Noroeste 22 Oeste 0 -- -- 35
2019-08-06 11:00:00 26.2 12 Oeste 22 Oeste 0 -- -- 40
2019-08-06 10:00:00 24.4 13 Sudoeste 23 Sudoeste 0 -- -- 43
2019-08-06 09:00:00 21.1 15 Sudoeste 24 Sur 0 -- -- 48
2019-08-06 08:00:00 18 12 Sur 21 Oeste 0 -- -- 55
2019-08-06 07:00:00 15.2 8 Sur 11 Sur 0 -- -- 60
2019-08-06 06:00:00 17.2 3 Sudoeste 12 Sudoeste 0 -- -- 53
2019-08-06 05:00:00 19 9 Sur 18 Sur 0 -- -- 48
2019-08-06 04:00:00 19.5 12 Sudoeste 18 Sudoeste 0 -- -- 45
2019-08-06 03:00:00 19.3 10 Sudoeste 16 Sudoeste 0 -- -- 43
2019-08-06 02:00:00 18.5 10 Sur 13 Sur 0 -- -- 45
2019-08-06 01:00:00 18.9 10 Sur 14 Sudoeste 0 -- -- 43
2019-08-06 00:00:00 19.7 10 Sudoeste 15 Sudoeste 0 -- -- 43
2019-08-05 23:00:00 21.2 12 Sudoeste 14 Sudoeste 0 -- -- 40
2019-08-05 22:00:00 25.1 6 Sudoeste 11 Oeste 0 -- -- 32
2019-08-05 21:00:00 30.8 10 Oeste 19 Oeste 0 -- -- 22
2019-08-05 20:00:00 33.3 10 Noroeste 22 Oeste 0 -- -- 18
2019-08-05 19:00:00 34.2 5 Sur 35 Noroeste 0 -- -- 20
2019-08-05 18:00:00 34.1 9 Noroeste 24 Oeste 0 -- -- 20
2019-08-05 17:00:00 33.6 21 Oeste 31 Oeste 0 -- -- 19
2019-08-05 16:00:00 33.1 14 Oeste 32 Oeste 0 -- -- 19
2019-08-05 15:00:00 32.9 19 Sudoeste 35 Oeste 0 -- -- 20
2019-08-05 14:00:00 31.5 18 Oeste 36 Oeste 0 -- -- 25
2019-08-05 13:00:00 29.9 12 Oeste 26 Oeste 0 -- -- 28
2019-08-05 12:00:00 27.8 6 Oeste 15 Oeste 0 -- -- 33
2019-08-05 11:00:00 25.6 10 Sudoeste 17 Sudoeste 0 -- -- 39
2019-08-05 10:00:00 23.2 10 Oeste 15 Oeste 0 -- -- 42
2019-08-05 09:00:00 20.7 11 Sudoeste 15 Sudoeste 0 -- -- 45
2019-08-05 08:00:00 16.1 10 Sur 14 Sur 0 -- -- 57
2019-08-05 07:00:00 15.6 7 Sudoeste 12 Sudoeste 0 -- -- 55
2019-08-05 06:00:00 16.4 9 Sur 13 Sudoeste 0 -- -- 55
2019-08-05 05:00:00 16.4 10 Sur 13 Sudoeste 0 -- -- 56
2019-08-05 04:00:00 17.9 9 Sudoeste 13 Sur 0 -- -- 49
2019-08-05 03:00:00 17.9 10 Sur 14 Sur 0 -- -- 49
2019-08-05 02:00:00 17.5 11 Sur 14 Sur 0 -- -- 49
2019-08-05 01:00:00 18.3 10 Sudoeste 15 Sur 0 -- -- 46
2019-08-05 00:00:00 19.4 10 Sur 13 Sudoeste 0 -- -- 42
2019-08-04 23:00:00 21.4 11 Sur 14 Sur 0 -- -- 39
2019-08-04 22:00:00 24.3 8 Sudoeste 13 Oeste 0 -- -- 33
2019-08-04 21:00:00 30.4 10 Noroeste 21 Noroeste 0 -- -- 22
2019-08-04 20:00:00 32.2 18 Noroeste 27 Oeste 0 -- -- 20
2019-08-04 19:00:00 33.4 15 Noroeste 39 Oeste 0 -- -- 17
2019-08-04 18:00:00 34.3 17 Sudoeste 33 Sudoeste 0 -- -- 19
2019-08-04 17:00:00 33.5 14 Sudoeste 30 Oeste 0 -- -- 22
2019-08-04 16:00:00 33.6 19 Oeste 35 Oeste 0 -- -- 21
2019-08-04 15:00:00 32.3 20 Oeste 35 Oeste 0 -- -- 23
2019-08-04 14:00:00 31.4 15 Oeste 35 Oeste 0 -- -- 24
2019-08-04 13:00:00 30 19 Oeste 31 Oeste 0 -- -- 29
2019-08-04 12:00:00 27.7 12 Sudoeste 22 Oeste 0 -- -- 38
2019-08-04 11:00:00 25.3 13 Sudoeste 23 Sudoeste 0 -- -- 44
2019-08-04 10:00:00 23.1 16 Sudoeste 27 Sudoeste 0 -- -- 47
2019-08-04 09:00:00 21.6 16 Sudoeste 22 Sudoeste 0 -- -- 47
2019-08-04 08:00:00 18.4 9 Sudoeste 18 Sudoeste 0 -- -- 53
2019-08-04 07:00:00 17.9 12 Sudoeste 20 Sudoeste 0 -- -- 50
2019-08-04 06:00:00 17.5 12 Sudoeste 20 Sudoeste 0 -- -- 48
2019-08-04 05:00:00 17 8 Sur 17 Sudoeste 0 -- -- 48
2019-08-04 04:00:00 18.6 12 Sudoeste 17 Sudoeste 0 -- -- 43
2019-08-04 03:00:00 16.2 9 Sur 17 Sur 0 -- -- 44
2019-08-04 02:00:00 16.4 12 Sudoeste 15 Sudoeste 0 -- -- 43
2019-08-04 01:00:00 18.8 5 Norte 15 Sur 0 -- -- 36
2019-08-04 00:00:00 19 12 Sudoeste 14 Sur 0 -- -- 38
2019-08-03 23:00:00 20.9 11 Sur 15 Sur 0 -- -- 35
2019-08-03 22:00:00 23.8 9 Sur 12 Oeste 0 -- -- 29
2019-08-03 21:00:00 30.8 9 Oeste 25 Noroeste 0 -- -- 18
2019-08-03 20:00:00 32.9 13 Noroeste 27 Oeste 0 -- -- 16
2019-08-03 19:00:00 34 12 Oeste 30 Oeste 0 -- -- 17
2019-08-03 18:00:00 34.1 12 Oeste 38 Oeste 0 -- -- 19
2019-08-03 17:00:00 34.2 20 Oeste 32 Sudoeste 0 -- -- 19
2019-08-03 16:00:00 33.9 16 Oeste 27 Oeste 0 -- -- 19
2019-08-03 15:00:00 33.2 10 Oeste 34 Sudoeste 0 -- -- 19
2019-08-03 14:00:00 32.8 14 Sudoeste 35 Oeste 0 -- -- 20
2019-08-03 13:00:00 31.2 18 Oeste 29 Oeste 0 -- -- 22
2019-08-03 12:00:00 30.3 12 Sudoeste 26 Oeste 0 -- -- 25
2019-08-03 11:00:00 28.3 8 Sudoeste 16 Sudoeste 0 -- -- 30
2019-08-03 10:00:00 24.7 9 Oeste 15 Sudoeste 0 -- -- 37
2019-08-03 09:00:00 18.4 4 Sur 7 Sudoeste 0 -- -- 59
2019-08-03 08:00:00 13.2 9 Sudoeste 11 Sur 0 -- -- 72
2019-08-03 07:00:00 12.4 8 Sudoeste 12 Sudoeste 0 -- -- 74
2019-08-03 06:00:00 14.3 7 Sudoeste 12 Sur 0 -- -- 66
2019-08-03 05:00:00 19 0 Calma 15 Este 0 -- -- 52
2019-08-03 04:00:00 19.8 11 Este 21 Este 0 -- -- 51
2019-08-03 03:00:00 20.8 11 Este 26 Este 0 -- -- 50
2019-08-03 02:00:00 22.2 14 Este 28 Este 0 -- -- 48
2019-08-03 01:00:00 22.6 16 Este 28 Este 0 -- -- 49
2019-08-03 00:00:00 23.6 14 Este 30 Este 0 -- -- 44
2019-08-02 23:00:00 24.5 14 Este 24 Nordeste 0 -- -- 40
2019-08-02 22:00:00 25.3 0 Calma 12 Norte 0 -- -- 30
2019-08-02 21:00:00 29.2 13 Norte 20 Norte 0 -- -- 25
2019-08-02 20:00:00 31.3 13 Norte 26 Norte 0 -- -- 23
2019-08-02 19:00:00 31.5 16 Norte 26 Nordeste 0 -- -- 23
2019-08-02 18:00:00 32.3 15 Norte 32 Norte 0 -- -- 23
2019-08-02 17:00:00 32.6 8 Oeste 25 Oeste 0 -- -- 21
2019-08-02 16:00:00 32.6 8 Oeste 25 Sudoeste 0 -- -- 21
2019-08-02 15:00:00 31.5 11 Oeste 21 Noroeste 0 -- -- 22
2019-08-02 14:00:00 30 9 Norte 23 Noroeste 0 -- -- 26
2019-08-02 13:00:00 29 6 Norte 19 Norte 0 -- -- 27
2019-08-02 12:00:00 26.9 6 Noroeste 10 Norte 0 -- -- 34
2019-08-02 11:00:00 24.2 5 Noroeste 15 Oeste 0 -- -- 38
2019-08-02 10:00:00 22 8 Sudoeste 16 Sudoeste 0 -- -- 43
2019-08-02 09:00:00 18.3 7 Sur 12 Sudoeste 0 -- -- 68
2019-08-02 08:00:00 13.1 7 Sudoeste 12 Sudoeste 0 -- -- 82
2019-08-02 07:00:00 11.4 9 Sudoeste 12 Sudoeste 0 -- -- 86
2019-08-02 06:00:00 11.9 6 Sudoeste 9 Sur 0 -- -- 82
2019-08-02 05:00:00 12.4 7 Sudoeste 9 Sur 0 -- -- 80
2019-08-02 04:00:00 13.3 4 Sudoeste 9 Sudoeste 0 -- -- 74
2019-08-02 03:00:00 13.8 3 Sudoeste 7 Sudoeste 0 -- -- 72
2019-08-02 02:00:00 14.8 5 Sudoeste 9 Sur 0 -- -- 66
2019-08-02 01:00:00 15.9 7 Sudoeste 9 Sudoeste 0 -- -- 62
2019-08-02 00:00:00 17.3 8 Sudoeste 11 Sur 0 -- -- 56
2019-08-01 23:00:00 19.7 6 Sudoeste 8 Sudoeste 0 -- -- 46
2019-08-01 22:00:00 24.2 6 Oeste 13 Oeste 0 -- -- 35
2019-08-01 21:00:00 27.3 9 Oeste 25 Noroeste 0 -- -- 25
2019-08-01 20:00:00 29.6 15 Oeste 29 Oeste 0 -- -- 23
2019-08-01 19:00:00 30.3 23 Oeste 38 Noroeste 0 -- -- 24
2019-08-01 18:00:00 30.7 18 Oeste 37 Noroeste 0 -- -- 23
2019-08-01 17:00:00 31 22 Oeste 38 Sudoeste 0 -- -- 22
2019-08-01 16:00:00 30.4 23 Oeste 39 Oeste 0 -- -- 20
2019-08-01 15:00:00 30.1 21 Sudoeste 44 Oeste 0 -- -- 22
2019-08-01 14:00:00 29.6 22 Sudoeste 39 Oeste 0 -- -- 25
2019-08-01 13:00:00 28.2 16 Sudoeste 35 Oeste 0 -- -- 30
2019-08-01 12:00:00 27 17 Oeste 31 Oeste 0 -- -- 37
2019-08-01 11:00:00 25.4 6 Sudoeste 18 Oeste 0 -- -- 53
2019-08-01 10:00:00 23.3 14 Sudoeste 20 Sudoeste 0 -- -- 61
2019-08-01 09:00:00 19.7 2 Nordeste 4 Sur 0 -- -- 74
2019-08-01 08:00:00 17.2 2 Norte 8 Sudeste 0 -- -- 89
2019-08-01 07:00:00 17 2 Sur 15 Sur 0.2 -- -- 87
2019-08-01 06:00:00 16.6 4 Sudoeste 9 Noroeste 0 -- -- 80
2019-08-01 05:00:00 17.1 4 Sur 9 Sudoeste 0 -- -- 83
2019-08-01 04:00:00 17.9 9 Sudoeste 11 Sudoeste 0 -- -- 83
2019-08-01 03:00:00 18 5 Sudoeste 9 Sudoeste 0 -- -- 81
2019-08-01 02:00:00 18.2 2 Noroeste 8 Sur 0 -- -- 78
2019-08-01 01:00:00 18.9 3 Sur 9 Sudoeste 0 -- -- 70
2019-08-01 00:00:00 21.3 4 Sudeste 19 Nordeste 0 -- -- 58
2019-07-31 23:00:00 23.1 7 Norte 14 Sur 0 -- -- 44
2019-07-31 22:00:00 23.9 7 Sur 11 Sur 0 -- -- 42
2019-07-31 21:00:00 26.6 6 Sur 21 Sur 0 -- -- 35
2019-07-31 20:00:00 28.4 15 Sur 30 Sudeste 0 -- -- 31
2019-07-31 19:00:00 30.4 15 Sur 30 Sudoeste 0 -- -- 27
2019-07-31 18:00:00 31.1 14 Sudoeste 41 Sudoeste 0 -- -- 28
2019-07-31 17:00:00 31.3 12 Sur 36 Oeste 0 -- -- 29
2019-07-31 16:00:00 31.2 13 Sudoeste 27 Sur 0 -- -- 27
2019-07-31 15:00:00 28.7 11 Nordeste 29 Norte 0 -- -- 35
2019-07-31 14:00:00 27.7 18 Nordeste 30 Norte 0 -- -- 36
2019-07-31 13:00:00 26.8 15 Norte 26 Norte 0 -- -- 37
2019-07-31 12:00:00 24.5 19 Nordeste 28 Nordeste 0 -- -- 41
2019-07-31 11:00:00 22.4 15 Nordeste 25 Nordeste 0 -- -- 45
2019-07-31 10:00:00 19.7 2 Este 8 Norte 0 -- -- 52
2019-07-31 09:00:00 13.8 2 Sudoeste 8 Sudoeste 0 -- -- 70
2019-07-31 08:00:00 10.2 4 Sur 12 Nordeste 0 -- -- 75
2019-07-31 07:00:00 12.6 8 Nordeste 12 Nordeste 0 -- -- 69
2019-07-31 06:00:00 12.5 8 Norte 23 Este 0 -- -- 68
2019-07-31 05:00:00 13.5 16 Nordeste 29 Nordeste 0 -- -- 65
2019-07-31 04:00:00 13.9 13 Nordeste 22 Este 0 -- -- 64
2019-07-31 03:00:00 14.7 11 Este 23 Nordeste 0 -- -- 60
2019-07-31 02:00:00 15.1 12 Este 22 Este 0 -- -- 58
2019-07-31 01:00:00 15.5 9 Este 18 Este 0 -- -- 56
2019-07-31 00:00:00 15.6 9 Este 14 Nordeste 0 -- -- 53
2019-07-30 23:00:00 17 3 Este 16 Noroeste 0 -- -- 48
2019-07-30 22:00:00 19.7 13 Norte 20 Norte 0 -- -- 39
2019-07-30 21:00:00 22.2 13 Noroeste 20 Noroeste 0 -- -- 29
2019-07-30 20:00:00 23.6 12 Norte 23 Norte 0 -- -- 29
2019-07-30 19:00:00 24.5 13 Norte 41 Nordeste 0 -- -- 30
2019-07-30 18:00:00 24.9 14 Norte 28 Norte 0 -- -- 31
2019-07-30 17:00:00 24.4 9 Noroeste 27 Nordeste 0 -- -- 30
2019-07-30 16:00:00 24.1 13 Norte 32 Noroeste 0 -- -- 31
2019-07-30 15:00:00 23.6 15 Norte 29 Noroeste 0 -- -- 30
2019-07-30 14:00:00 22.2 7 Norte 20 Oeste 0 -- -- 33
2019-07-30 13:00:00 20.5 5 Nordeste 21 Oeste 0 -- -- 39
2019-07-30 12:00:00 19.1 9 Norte 21 Sudoeste 0 -- -- 42
2019-07-30 11:00:00 16.8 12 Sudoeste 22 Oeste 0 -- -- 54
2019-07-30 10:00:00 14.7 14 Sudoeste 26 Sudoeste 0 -- -- 61
2019-07-30 09:00:00 12.9 15 Oeste 26 Sudoeste 0 -- -- 65
2019-07-30 08:00:00 11 9 Sudoeste 19 Sudoeste 0 -- -- 68
2019-07-30 07:00:00 10.2 11 Sudoeste 18 Sudoeste 0 -- -- 67
2019-07-30 06:00:00 11.1 10 Sudoeste 19 Sur 0 -- -- 65
2019-07-30 05:00:00 11.8 12 Sudoeste 21 Sudoeste 0 -- -- 59
2019-07-30 04:00:00 12.7 15 Sudoeste 21 Sudoeste 0 -- -- 55
2019-07-30 03:00:00 12.6 7 Sudoeste 13 Sudoeste 0 -- -- 53
2019-07-30 02:00:00 13.3 8 Sudoeste 16 Sudoeste 0 -- -- 49
2019-07-30 01:00:00 15.5 7 Sudoeste 12 Sur 0 -- -- 43
2019-07-30 00:00:00 16.6 9 Sudoeste 13 Sudoeste 0 -- -- 41
2019-07-29 23:00:00 19 9 Sudoeste 21 Noroeste 0 -- -- 35
2019-07-29 22:00:00 21.6 15 Oeste 28 Oeste 0 -- -- 31
2019-07-29 21:00:00 24.2 19 Oeste 35 Oeste 0 -- -- 28
2019-07-29 20:00:00 25.9 23 Oeste 39 Oeste 0 -- -- 24
2019-07-29 19:00:00 26.9 26 Oeste 46 Oeste 0 -- -- 29
2019-07-29 18:00:00 28 26 Oeste 41 Oeste 0 -- -- 31
2019-07-29 17:00:00 28.9 26 Oeste 42 Sudoeste 0 -- -- 26
2019-07-29 16:00:00 29.3 23 Oeste 46 Sudoeste 0 -- -- 25
2019-07-29 15:00:00 28.2 23 Oeste 38 Oeste 0 -- -- 25
2019-07-29 14:00:00 26.8 23 Oeste 35 Oeste 0 -- -- 27
2019-07-29 13:00:00 25.6 18 Sudoeste 31 Oeste 0 -- -- 35
2019-07-29 12:00:00 23.3 20 Oeste 31 Oeste 0 -- -- 40
2019-07-29 11:00:00 21.6 20 Sudoeste 30 Sudoeste 0 -- -- 45
2019-07-29 10:00:00 20.3 16 Sudoeste 26 Sudoeste 0 -- -- 45
2019-07-29 09:00:00 18.8 11 Sudoeste 19 Sudoeste 0 -- -- 45
2019-07-29 08:00:00 15.5 7 Sudoeste 23 Sudoeste 0 -- -- 50
2019-07-29 07:00:00 13.8 14 Sudoeste 23 Sudoeste 0 -- -- 50
2019-07-29 06:00:00 9 7 Sudoeste 12 Sudoeste 0 -- -- 67
2019-07-29 05:00:00 9.4 7 Sudoeste 11 Sudoeste 0 -- -- 63
2019-07-29 04:00:00 9.6 8 Sudoeste 10 Sudoeste 0 -- -- 61
2019-07-29 03:00:00 10.3 6 Sur 8 Sudoeste 0 -- -- 60
2019-07-29 02:00:00 12.2 4 Sudoeste 14 Sur 0 -- -- 52
2019-07-29 01:00:00 12.5 11 Sudoeste 13 Sudoeste 0 -- -- 54
2019-07-29 00:00:00 13.6 9 Sudoeste 14 Sur 0 -- -- 51
2019-07-28 23:00:00 15.3 10 Sur 12 Sur 0 -- -- 46
2019-07-28 22:00:00 19.4 5 Sur 10 Noroeste 0 -- -- 39
2019-07-28 21:00:00 25.1 8 Noroeste 22 Oeste 0 -- -- 27
2019-07-28 20:00:00 25.9 15 Oeste 27 Oeste 0 -- -- 25
2019-07-28 19:00:00 26.5 16 Oeste 32 Oeste 0 -- -- 25
2019-07-28 18:00:00 26.1 14 Oeste 32 Noroeste 0 -- -- 25
2019-07-28 17:00:00 26.1 15 Oeste 39 Oeste 0 -- -- 24
2019-07-28 16:00:00 25.4 12 Oeste 29 Oeste 0 -- -- 23
2019-07-28 15:00:00 24 9 Sudoeste 28 Sudoeste 0 -- -- 32
2019-07-28 14:00:00 22.5 11 Sudoeste 23 Oeste 0 -- -- 37
2019-07-28 13:00:00 21 7 Sudoeste 20 Noroeste 0 -- -- 41
2019-07-28 12:00:00 19.3 5 Noroeste 17 Oeste 0 -- -- 47
2019-07-28 11:00:00 17.2 8 Oeste 18 Oeste 0 -- -- 57
2019-07-28 10:00:00 15 5 Oeste 12 Oeste 0 -- -- 67
2019-07-28 09:00:00 12.5 8 Oeste 10 Oeste 0 -- -- 79
2019-07-28 08:00:00 7.8 5 Sur 12 Sudoeste 0 -- -- 92
2019-07-28 07:00:00 6.3 5 Sudoeste 10 Sur 0 -- -- 91
2019-07-28 06:00:00 6.7 8 Sur 11 Sur 0 -- -- 91
2019-07-28 05:00:00 7.2 7 Sur 12 Sur 0 -- -- 90
2019-07-28 04:00:00 8 6 Sur 11 Sur 0 -- -- 90
2019-07-28 03:00:00 8.7 7 Sur 13 Sur 0 -- -- 87
2019-07-28 02:00:00 10.5 0 Calma 7 Norte 0 -- -- 82
2019-07-28 01:00:00 12 2 Oeste 7 Sur 0 -- -- 78
2019-07-28 00:00:00 13.7 6 Norte 22 Norte 0 -- -- 72
2019-07-27 23:00:00 15 16 Norte 20 Norte 0 -- -- 70
2019-07-26 12:00:00 22.1 15 Oeste 29 Oeste 0 -- -- 61
2019-07-26 11:00:00 20.1 15 Oeste 27 Oeste 0 -- -- 69
2019-07-26 10:00:00 19.1 16 Oeste 25 Oeste 0 -- -- 76
2019-07-26 09:00:00 17.8 13 Sudoeste 25 Sudoeste 0 -- -- 81
2019-07-26 08:00:00 17.6 12 Sudoeste 19 Oeste 0 -- -- 83
2019-07-26 07:00:00 17.8 9 Oeste 27 Sur 0 -- -- 80
2019-07-26 06:00:00 18.2 12 Sur 30 Sudoeste 0 -- -- 75
2019-07-26 05:00:00 18.6 13 Sudoeste 27 Sudoeste 0 -- -- 65
2019-07-26 04:00:00 18.3 9 Sudoeste 14 Sudoeste 0 -- -- 71
2019-07-26 03:00:00 19.4 5 Sur 13 Sudoeste 0.2 -- -- 63
2019-07-26 02:00:00 20.3 8 Sudoeste 13 Sudoeste 0 -- -- 47
2019-07-26 01:00:00 22.7 10 Oeste 18 Sudoeste 0 -- -- 38
2019-07-26 00:00:00 22.4 11 Sudoeste 17 Sudoeste 0 -- -- 39
2019-07-25 23:00:00 24.3 9 Sudoeste 14 Sudoeste 0 -- -- 35
2019-07-25 22:00:00 27.4 5 Oeste 19 Oeste 0 -- -- 30
2019-07-25 21:00:00 30.7 15 Sudoeste 27 Sudoeste 0 -- -- 25
2019-07-25 20:00:00 32.6 18 Sudoeste 48 Oeste 0 -- -- 22
2019-07-25 19:00:00 33.2 22 Sudoeste 39 Sudoeste 0 -- -- 22
2019-07-25 18:00:00 33.2 23 Sur 42 Sur 0 -- -- 21
2019-07-25 17:00:00 33.7 18 Sur 39 Sur 0 -- -- 20
2019-07-25 16:00:00 33.3 18 Sur 37 Sur 0 -- -- 21
2019-07-25 15:00:00 33.1 17 Sur 35 Sur 0 -- -- 25
2019-07-25 14:00:00 32.9 14 Sur 38 Sur 0 -- -- 24
2019-07-25 13:00:00 31.5 10 Sudoeste 25 Sudoeste 0 -- -- 30
2019-07-25 12:00:00 29.6 4 Oeste 13 Noroeste 0 -- -- 34
2019-07-25 11:00:00 27 7 Noroeste 13 Noroeste 0 -- -- 37
2019-07-25 10:00:00 25.3 5 Este 13 Este 0 -- -- 40
2019-07-25 09:00:00 21.5 2 Nordeste 5 Este 0 -- -- 52
2019-07-25 08:00:00 19.4 2 Norte 17 Sudoeste 0 -- -- 54
2019-07-25 07:00:00 20.3 11 Sudoeste 24 Sudoeste 0 -- -- 52
2019-07-25 06:00:00 21.8 17 Sudoeste 27 Sudoeste 0 -- -- 47
2019-07-25 05:00:00 23.9 17 Sudoeste 33 Sur 0 -- -- 36
2019-07-25 04:00:00 25.8 24 Sur 37 Sur 0 -- -- 32
2019-07-25 03:00:00 26.5 23 Sur 36 Sur 0 -- -- 31
2019-07-25 02:00:00 26.7 20 Sur 34 Sur 0 -- -- 29
2019-07-25 01:00:00 24 14 Sur 23 Sudeste 0 -- -- 37
2019-07-25 00:00:00 21.9 9 Sudoeste 14 Sur 0 -- -- 44
2019-07-24 23:00:00 23.7 10 Sur 16 Sur 0 -- -- 39
2019-07-24 22:00:00 26.5 6 Sur 16 Sudoeste 0 -- -- 36
2019-07-24 21:00:00 31.2 13 Sudoeste 29 Sur 0 -- -- 27
2019-07-24 20:00:00 32.8 17 Sudoeste 34 Sur 0 -- -- 25
2019-07-24 19:00:00 33.8 17 Sudoeste 38 Sudoeste 0 -- -- 25
2019-07-24 18:00:00 35 22 Sudoeste 41 Sur 0 -- -- 22
2019-07-24 17:00:00 33.7 20 Sur 34 Sur 0 -- -- 24
2019-07-24 16:00:00 33.1 19 Sur 36 Sudoeste 0 -- -- 25
2019-07-24 15:00:00 34.4 18 Sudoeste 36 Sudoeste 0 -- -- 25
2019-07-24 14:00:00 33.8 17 Sur 33 Sur 0 -- -- 27
2019-07-24 13:00:00 33 13 Sur 32 Sur 0 -- -- 28
2019-07-24 12:00:00 30.8 7 Noroeste 13 Norte 0 -- -- 30
2019-07-24 11:00:00 28 6 Norte 10 Nordeste 0 -- -- 39
2019-07-24 10:00:00 24.7 5 Norte 8 Norte 0 -- -- 48
2019-07-24 09:00:00 20.6 4 Norte 10 Sur 0 -- -- 63
2019-07-24 08:00:00 16.3 4 Sur 10 Sudoeste 0 -- -- 76
2019-07-24 07:00:00 16 9 Sudoeste 13 Sudoeste 0 -- -- 76
2019-07-24 06:00:00 17.8 4 Sudoeste 8 Oeste 0 -- -- 72
2019-07-24 05:00:00 19.9 3 Sudoeste 19 Este 0 -- -- 63
2019-07-24 04:00:00 19.7 2 Norte 9 Nordeste 0 -- -- 64
2019-07-24 03:00:00 20.7 9 Sudeste 20 Sudeste 0 -- -- 60
2019-07-24 02:00:00 21.7 6 Nordeste 17 Nordeste 0 -- -- 58
2019-07-24 01:00:00 22.1 10 Nordeste 25 Oeste 0 -- -- 56
2019-07-24 00:00:00 23.8 12 Sudoeste 24 Sudoeste 0 -- -- 43
2019-07-23 23:00:00 24.1 6 Sudeste 51 Sudoeste 0 -- -- 44
2019-07-23 22:00:00 26.2 37 Sudoeste 83 Sur 0 -- -- 37
2019-07-23 21:00:00 31.1 5 Sur 18 Sudoeste 0 -- -- 32
2019-07-23 20:00:00 32.6 12 Sudoeste 42 Sur 0 -- -- 27
2019-07-23 19:00:00 31.7 23 Sudoeste 42 Sur 0 -- -- 26
2019-07-23 18:00:00 33.2 15 Sur 27 Sur 0 -- -- 28
2019-07-23 17:00:00 28.7 9 Sur 57 Oeste 2.4 -- -- 49
2019-07-23 16:00:00 33 9 Sur 21 Sur 0 -- -- 24
2019-07-23 15:00:00 33.5 9 Sur 33 Sudoeste 0 -- -- 24
2019-07-23 14:00:00 33.3 12 Sudoeste 33 Sudoeste 0 -- -- 23
2019-07-23 13:00:00 32.4 25 Sudoeste 46 Sudoeste 0 -- -- 26
2019-07-23 12:00:00 29.8 20 Este 40 Este 0 -- -- 29
2019-07-23 11:00:00 26.3 22 Este 33 Este 0 -- -- 38
2019-07-23 10:00:00 23 5 Sudeste 19 Sudoeste 0 -- -- 49
2019-07-23 09:00:00 22.7 17 Sudoeste 29 Sudoeste 0 -- -- 48
2019-07-23 08:00:00 23.6 18 Sudoeste 43 Sudoeste 0 -- -- 36
2019-07-23 07:00:00 17.8 7 Sudoeste 10 Oeste 0.2 -- -- 68
2019-07-23 06:00:00 19.9 12 Oeste 22 Oeste 0 -- -- 48
2019-07-23 05:00:00 17.5 9 Sudoeste 14 Sur 0 -- -- 57
2019-07-23 04:00:00 17.6 10 Sur 13 Sur 0 -- -- 56
2019-07-23 03:00:00 18.7 9 Sur 13 Sur 0 -- -- 53
2019-07-23 02:00:00 22.3 6 Sudoeste 20 Noroeste 0 -- -- 42
2019-07-23 01:00:00 25.1 8 Noroeste 27 Norte 0 -- -- 37
2019-07-23 00:00:00 22.8 5 Sudeste 14 Sur 0 -- -- 42
2019-07-22 23:00:00 24.1 3 Sudoeste 14 Sudoeste 0 -- -- 37
2019-07-22 22:00:00 26.4 4 Sur 9 Sur 0 -- -- 34
2019-07-22 21:00:00 30.5 5 Sur 22 Sur 0 -- -- 28
2019-07-22 20:00:00 33.1 13 Sur 35 Sur 0 -- -- 24
2019-07-22 19:00:00 33.9 20 Sur 35 Sur 0 -- -- 22
2019-07-22 18:00:00 34.1 21 Sur 36 Sudeste 0 -- -- 23
2019-07-22 17:00:00 34.5 21 Sur 35 Sur 0 -- -- 23
2019-07-22 16:00:00 34.8 19 Sur 34 Sudeste 0 -- -- 22
2019-07-22 15:00:00 34.9 19 Sur 31 Sur 0 -- -- 23
2019-07-22 14:00:00 34.4 15 Sur 26 Sur 0 -- -- 24
2019-07-22 13:00:00 33.4 12 Sur 28 Sur 0 -- -- 25
2019-07-22 12:00:00 31.9 5 Noroeste 13 Nordeste 0 -- -- 29
2019-07-22 11:00:00 29.1 4 Este 10 Este 0 -- -- 36
2019-07-22 10:00:00 26.1 6 Norte 10 Norte 0 -- -- 45
2019-07-22 09:00:00 22.6 4 Noroeste 8 Noroeste 0 -- -- 54
2019-07-22 08:00:00 18.9 4 Sudoeste 6 Sudoeste 0 -- -- 66
2019-07-22 07:00:00 19.6 2 Sudoeste 15 Sur 0 -- -- 61
2019-07-22 06:00:00 20.8 2 Sudeste 16 Sur 0 -- -- 59
2019-07-22 05:00:00 22.7 9 Sudeste 26 Sur 0 -- -- 55
2019-07-22 04:00:00 22.6 5 Oeste 31 Sudoeste 0 -- -- 55
2019-07-22 03:00:00 23.9 17 Sudoeste 29 Sudoeste 0 -- -- 50
2019-07-22 02:00:00 21 4 Noroeste 13 Sur 0 -- -- 67
2019-07-22 01:00:00 21.9 3 Sur 6 Este 0 -- -- 66
2019-07-22 00:00:00 23.6 6 Nordeste 17 Nordeste 0 -- -- 61
2019-07-21 23:00:00 24.4 12 Nordeste 27 Norte 0 -- -- 62
2019-07-21 22:00:00 26.5 14 Nordeste 23 Nordeste 0 -- -- 50
2019-07-21 21:00:00 28.8 5 Este 17 Nordeste 0 -- -- 39
2019-07-21 20:00:00 29.1 15 Nordeste 28 Norte 0 -- -- 41
2019-07-21 19:00:00 33.7 7 Este 22 Norte 0 -- -- 27
2019-07-21 18:00:00 34.6 5 Sudeste 24 Oeste 0 -- -- 27
2019-07-21 17:00:00 33.9 14 Oeste 26 Oeste 0 -- -- 26
2019-07-21 16:00:00 34.2 9 Este 26 Oeste 0 -- -- 27
2019-07-21 15:00:00 34.2 11 Oeste 28 Oeste 0 -- -- 27
2019-07-21 14:00:00 32.9 10 Oeste 24 Oeste 0 -- -- 30
2019-07-21 13:00:00 31.4 9 Este 17 Nordeste 0 -- -- 34
2019-07-21 12:00:00 29.5 9 Norte 19 Norte 0 -- -- 36
2019-07-21 11:00:00 27.2 6 Nordeste 13 Nordeste 0 -- -- 41
2019-07-21 10:00:00 23.7 3 Nordeste 7 Nordeste 0 -- -- 49
2019-07-21 09:00:00 19.9 2 Norte 5 Sur 0 -- -- 62
2019-07-21 08:00:00 16.5 2 Sur 10 Sudoeste 0 -- -- 74
2019-07-21 07:00:00 14.3 3 Sur 10 Sudoeste 0 -- -- 75
2019-07-21 06:00:00 14.5 6 Sur 11 Sur 0 -- -- 70
2019-07-21 05:00:00 15.5 4 Sur 13 Sur 0 -- -- 64
2019-07-21 04:00:00 16.8 4 Oeste 11 Sudoeste 0 -- -- 58
2019-07-21 03:00:00 17.7 9 Sudoeste 14 Sudoeste 0 -- -- 59
2019-07-21 02:00:00 18.5 4 Sur 14 Nordeste 0 -- -- 56
2019-07-21 01:00:00 19.1 11 Sudoeste 13 Sur 0 -- -- 56
2019-07-21 00:00:00 20.4 10 Sudoeste 13 Sur 0 -- -- 52
2019-07-20 23:00:00 23.5 9 Sur 10 Sur 0 -- -- 42
2019-07-20 22:00:00 28.8 8 Noroeste 21 Noroeste 0 -- -- 29
2019-07-20 21:00:00 31.8 13 Noroeste 28 Oeste 0 -- -- 27
2019-07-20 20:00:00 33.1 15 Oeste 23 Oeste 0 -- -- 26
2019-07-20 19:00:00 34 14 Noroeste 25 Oeste 0 -- -- 25
2019-07-20 18:00:00 34.5 15 Oeste 29 Sudoeste 0 -- -- 26
2019-07-20 17:00:00 33.2 5 Sudeste 28 Sur 0 -- -- 26
2019-07-20 16:00:00 34.2 15 Oeste 36 Oeste 0 -- -- 25
2019-07-20 15:00:00 33.4 23 Oeste 41 Oeste 0 -- -- 24
2019-07-20 14:00:00 32.3 15 Oeste 26 Oeste 0 -- -- 28
2019-07-20 13:00:00 31.2 11 Oeste 21 Sudoeste 0 -- -- 30
2019-07-20 12:00:00 29.8 11 Sudoeste 20 Sudoeste 0 -- -- 32
2019-07-20 11:00:00 27.2 12 Sudoeste 27 Oeste 0 -- -- 40
2019-07-20 10:00:00 24.8 17 Sudoeste 26 Sudoeste 0 -- -- 42
2019-07-20 09:00:00 22.1 8 Sudoeste 16 Sudoeste 0 -- -- 52
2019-07-20 08:00:00 17.8 8 Sur 15 Sudoeste 0 -- -- 62
2019-07-20 07:00:00 17.5 9 Sudoeste 17 Sur 0 -- -- 59
2019-07-20 06:00:00 18.3 8 Sudoeste 15 Sudoeste 0 -- -- 56
2019-07-20 05:00:00 19.4 12 Sudoeste 19 Sur 0 -- -- 52
2019-07-20 04:00:00 16.7 11 Sur 15 Sur 0 -- -- 68
2019-07-20 03:00:00 18.5 6 Sudoeste 14 Sudoeste 0 -- -- 61
2019-07-20 02:00:00 19.5 11 Sur 18 Oeste 0 -- -- 61
2019-07-20 01:00:00 19.5 9 Sur 15 Sudoeste 0 -- -- 71
2019-07-20 00:00:00 23 10 Sur 32 Sur 0 -- -- 55
2019-07-19 23:00:00 23.9 10 Sudoeste 14 Sudoeste 0 -- -- 48
2019-07-19 22:00:00 25.8 8 Sur 12 Sur 0 -- -- 42
2019-07-19 21:00:00 30.3 8 Oeste 22 Oeste 0 -- -- 28
2019-07-19 20:00:00 31.6 12 Sudoeste 28 Oeste 0 -- -- 27
2019-07-19 19:00:00 32.4 13 Sur 21 Sudeste 0 -- -- 29
2019-07-19 18:00:00 31.6 16 Sur 24 Sur 0 -- -- 30
2019-07-19 17:00:00 31.2 13 Sur 23 Sudoeste 0 -- -- 30
2019-07-19 16:00:00 31 6 Sur 25 Sudoeste 0 -- -- 33
2019-07-19 15:00:00 31.8 10 Sur 24 Noroeste 0 -- -- 28
2019-07-19 14:00:00 32.8 14 Sudoeste 41 Sudoeste 0 -- -- 26
2019-07-19 13:00:00 30.7 6 Nordeste 17 Noroeste 0 -- -- 31
2019-07-19 12:00:00 29 6 Nordeste 10 Nordeste 0 -- -- 33
2019-07-19 11:00:00 26 4 Nordeste 11 Nordeste 0 -- -- 41
2019-07-19 10:00:00 21.9 4 Norte 9 Norte 0 -- -- 51
2019-07-19 09:00:00 18.4 3 Norte 6 Norte 0 -- -- 62
2019-07-19 08:00:00 13.1 5 Sudoeste 9 Sudeste 0 -- -- 83
2019-07-19 07:00:00 12.1 7 Sudoeste 10 Sudoeste 0 -- -- 85
2019-07-19 06:00:00 12.3 8 Sudoeste 11 Sur 0 -- -- 83
2019-07-19 05:00:00 13.2 6 Sudoeste 10 Sudoeste 0 -- -- 79
2019-07-19 04:00:00 15.1 7 Sudoeste 9 Sudoeste 0 -- -- 72
2019-07-19 03:00:00 17.9 3 Sudoeste 15 Este 0 -- -- 63
2019-07-19 02:00:00 20.2 6 Este 23 Este 0 -- -- 53
2019-07-19 01:00:00 20.4 15 Nordeste 23 Nordeste 0 -- -- 51
2019-07-19 00:00:00 17.1 3 Nordeste 8 Este 0 -- -- 50